MOL Celebration — C6WW7 — position and weather

sailwx.info

Track history (hours):
 
Tides and Currents Weather Stations Pressure Air Temp Water Temp Dewpoint Dewpoint Depression Visibility Wind Speed Wind Dir Waves Ship Positions

MOL Celebration

Last reported at 2015-Jan-29 07:21 UTC. Time now 2015-Jan-29 08:23 UTC.
Position N 33°52' W 118°56'.

Length 316 m; draft 13.6 m.

Type: Ship (hazmat cat D). MMSI: 309901000.

Date/timePositionNaut miles runAvg speedWind from/ knotsBaromVisibWave heightAir tempDewpointWater temp
2015-Jan-29 07:21N 33°52' W 118°56'103 9.3
2015-Jan-28 20:17N 34°25' W 120°54'1212.3
2015-Jan-28 19:17N 34°27' W 121°08'4812.1
2015-Jan-28 15:20N 34°38' W 122°05'1612.3
2015-Jan-28 14:03N 34°41' W 122°24'912.3
2015-Jan-28 13:20N 34°43' W 122°34'1012.4
2015-Jan-28 12:33N 34°45' W 122°46'1212.4
2015-Jan-28 11:33N 34°48' W 123°00'2612.2
2015-Jan-28 09:27N 34°53' W 123°31'1312.7
2015-Jan-28 08:25N 34°56' W 123°47'1612.7
2015-Jan-28 07:07N 34°59' W 124°06'812.9
2015-Jan-28 06:29N 35°01' W 124°16'1213.0
2015-Jan-28 05:33N 35°03' W 124°30'1312.8
2015-Jan-28 04:33N 35°06' W 124°46'1313.1
2015-Jan-28 03:33N 35°08' W 125°02'15112.4
2015-Jan-27 15:19N 36°28' W 127°40'12 3.1
2015-Jan-27 11:20N 36°35' W 127°53'1 0.5
2015-Jan-27 08:33N 36°35' W 127°55'2 0.4
2015-Jan-27 02:29N 36°35' W 127°57'0 0.2
2015-Jan-27 01:31N 36°35' W 127°57'0 0.4
2015-Jan-27 00:33N 36°35' W 127°58'0 0.3
2015-Jan-26 23:33N 36°35' W 127°58'1 0.4
2015-Jan-26 20:33N 36°34' W 127°60'29 0.8
2015-Jan-25 06:18N 36°37' W 128°35'1110.6
2015-Jan-25 05:16N 36°43' W 128°47'912.1
2015-Jan-25 04:33N 36°48' W 128°56'2812.2
2015-Jan-25 02:15N 37°02' W 129°26'1312.5
2015-Jan-25 01:15N 37°08' W 129°40'2112.4
2015-Jan-24 23:33N 37°18' W 130°03'2512.3
2015-Jan-24 21:33N 37°30' W 130°30'1812.3
2015-Jan-24 20:08N 37°39' W 130°49'17512.9
2015-Jan-24 06:32N 38°60' W 134°07'  
Track history (hours):
 
Tides and Currents Weather Stations Pressure Air Temp Water Temp Dewpoint Dewpoint Depression Visibility Wind Speed Wind Dir Waves Ship Positions

MOL Celebration

Last reported at 2015-Jan-29 07:21 UTC. Time now 2015-Jan-29 08:23 UTC.
Position N 33°52' W 118°56'.

Length 316 m; draft 13.6 m.

Type: Ship (hazmat cat D). MMSI: 309901000.

Date/timePositionNaut miles runAvg speedWind from/ knotsBaromVisibWave heightAir tempDewpointWater temp
2015-Jan-29 07:21N 33°52' W 118°56'103 9.3
2015-Jan-28 20:17N 34°25' W 120°54'1212.3
2015-Jan-28 19:17N 34°27' W 121°08'4812.1
2015-Jan-28 15:20N 34°38' W 122°05'1612.3
2015-Jan-28 14:03N 34°41' W 122°24'912.3
2015-Jan-28 13:20N 34°43' W 122°34'1012.4
2015-Jan-28 12:33N 34°45' W 122°46'1212.4
2015-Jan-28 11:33N 34°48' W 123°00'2612.2
2015-Jan-28 09:27N 34°53' W 123°31'1312.7
2015-Jan-28 08:25N 34°56' W 123°47'1612.7
2015-Jan-28 07:07N 34°59' W 124°06'812.9
2015-Jan-28 06:29N 35°01' W 124°16'1213.0
2015-Jan-28 05:33N 35°03' W 124°30'1312.8
2015-Jan-28 04:33N 35°06' W 124°46'1313.1
2015-Jan-28 03:33N 35°08' W 125°02'15112.4
2015-Jan-27 15:19N 36°28' W 127°40'12 3.1
2015-Jan-27 11:20N 36°35' W 127°53'1 0.5
2015-Jan-27 08:33N 36°35' W 127°55'2 0.4
2015-Jan-27 02:29N 36°35' W 127°57'0 0.2
2015-Jan-27 01:31N 36°35' W 127°57'0 0.4
2015-Jan-27 00:33N 36°35' W 127°58'0 0.3
2015-Jan-26 23:33N 36°35' W 127°58'1 0.4
2015-Jan-26 20:33N 36°34' W 127°60'29 0.8
2015-Jan-25 06:18N 36°37' W 128°35'1110.6
2015-Jan-25 05:16N 36°43' W 128°47'912.1
2015-Jan-25 04:33N 36°48' W 128°56'2812.2
2015-Jan-25 02:15N 37°02' W 129°26'1312.5
2015-Jan-25 01:15N 37°08' W 129°40'2112.4
2015-Jan-24 23:33N 37°18' W 130°03'2512.3
2015-Jan-24 21:33N 37°30' W 130°30'1812.3
2015-Jan-24 20:08N 37°39' W 130°49'17512.9
2015-Jan-24 06:32N 38°60' W 134°07'  

Dump ship's entire track history